Terminal Aerodrome Forecast
Issued by NWS

Home | Current Version | Previous Version | Graphics & Text | Print | Product List | Glossary On
Versions: 1 2 3 4 5 6 7 8 9 10 11 12 13 14 15
873
FTUS43 KABR 241140
TAFATY
TAF
KATY 241140Z 2412/2512 01010KT P6SM OVC080
     FM241600 03015KT P6SM OVC040
     FM242000 03014KT P6SM BKN045
     FM242300 02010KT P6SM SCT090
     FM250700 01004KT P6SM SKC=

USA.gov is the U.S. government's official web portal to all federal, state and local government web resources and services.